createdAt,value
2019-04-30T00:00:18.300Z,96.11
2019-04-30T00:01:18.813Z,96.11
2019-04-30T00:02:16.329Z,95.33
2019-04-30T00:03:19.603Z,95.33
2019-04-30T00:04:16.339Z,95.28
2019-04-30T00:05:18.814Z,95.12
2019-04-30T00:06:16.273Z,94.81
2019-04-30T00:07:19.064Z,94.60
2019-04-30T00:08:16.247Z,94.71
2019-04-30T00:09:18.987Z,94.71
2019-04-30T00:10:16.244Z,94.51
2019-04-30T00:11:19.474Z,94.30
2019-04-30T00:12:16.204Z,94.24
2019-04-30T00:13:20.677Z,93.93
2019-04-30T00:14:16.185Z,94.55
2019-04-30T00:15:19.533Z,94.13
2019-04-30T00:16:16.185Z,93.83
2019-04-30T00:17:19.612Z,93.98
2019-04-30T00:18:16.137Z,93.98
2019-04-30T00:19:19.625Z,94.59
2019-04-30T00:20:17.651Z,94.28
2019-04-30T00:21:18.705Z,94.28
2019-04-30T00:22:16.130Z,94.38
2019-04-30T00:23:17.959Z,94.49
2019-04-30T00:24:16.065Z,94.18
2019-04-30T00:25:19.637Z,94.18
2019-04-30T00:26:17.360Z,94.49
2019-04-30T00:27:16.036Z,94.80
2019-04-30T00:28:16.040Z,94.49
2019-04-30T00:29:19.100Z,95.00
2019-04-30T00:30:16.998Z,94.70
2019-04-30T00:31:17.338Z,95.52
2019-04-30T00:32:16.979Z,95.31
2019-04-30T00:33:22.045Z,94.80
2019-04-30T00:34:16.981Z,94.90
2019-04-30T00:35:19.518Z,95.21
2019-04-30T00:36:17.321Z,95.42
2019-04-30T00:37:18.810Z,95.42
2019-04-30T00:38:15.904Z,95.21
2019-04-30T00:39:16.729Z,95.00
2019-04-30T00:40:15.885Z,95.00
2019-04-30T00:41:15.878Z,94.49
2019-04-30T00:42:17.241Z,94.84
2019-04-30T00:43:17.141Z,95.25
2019-04-30T00:44:19.889Z,94.32
2019-04-30T00:45:16.859Z,94.32
2019-04-30T00:46:17.414Z,94.43
2019-04-30T00:47:16.803Z,94.43
2019-04-30T00:48:19.349Z,94.95
2019-04-30T00:49:22.846Z,94.53
2019-04-30T00:50:16.792Z,94.64
2019-04-30T00:51:21.116Z,94.32
2019-04-30T00:52:16.756Z,94.53
2019-04-30T00:53:16.614Z,94.43
2019-04-30T00:54:17.666Z,94.23
2019-04-30T00:55:15.733Z,94.32
2019-04-30T00:56:19.900Z,94.43
2019-04-30T00:57:16.699Z,94.32
2019-04-30T00:58:17.693Z,94.23
2019-04-30T00:59:15.674Z,94.37
2019-04-30T01:00:17.798Z,94.23
2019-04-30T01:01:16.654Z,94.12
2019-04-30T01:02:20.201Z,94.68
2019-04-30T01:03:16.625Z,94.17
2019-04-30T01:04:19.381Z,94.78
2019-04-30T01:05:16.643Z,94.57
2019-04-30T01:06:17.283Z,94.47
2019-04-30T01:07:16.591Z,94.68
2019-04-30T01:08:15.606Z,94.37
2019-04-30T01:09:15.666Z,94.37
2019-04-30T01:10:19.581Z,94.47
2019-04-30T01:11:16.550Z,94.47
2019-04-30T01:12:17.350Z,94.27
2019-04-30T01:13:16.525Z,94.52
2019-04-30T01:14:15.506Z,94.31
2019-04-30T01:15:15.522Z,94.42
2019-04-30T01:16:15.508Z,94.62
2019-04-30T01:17:15.473Z,94.62
2019-04-30T01:18:15.463Z,94.72
2019-04-30T01:19:27.526Z,94.62
2019-04-30T01:20:16.447Z,94.10
2019-04-30T01:21:15.495Z,94.35
2019-04-30T01:22:21.579Z,93.53
2019-04-30T01:23:16.401Z,94.25
2019-04-30T01:24:15.394Z,94.35
2019-04-30T01:25:15.383Z,92.80
2019-04-30T01:26:15.389Z,93.12
2019-04-30T01:27:15.418Z,93.05
2019-04-30T01:28:16.380Z,93.37
2019-04-30T01:29:15.337Z,93.26
2019-04-30T01:30:18.711Z,93.26
2019-04-30T01:31:16.321Z,93.57
2019-04-30T01:32:17.375Z,93.37
2019-04-30T01:33:16.351Z,93.93
2019-04-30T01:34:15.285Z,93.41
2019-04-30T01:35:15.269Z,93.41
2019-04-30T01:36:15.256Z,92.68
2019-04-30T01:37:15.247Z,92.27
2019-04-30T01:38:15.242Z,92.21
2019-04-30T01:39:15.278Z,91.69
2019-04-30T01:40:15.221Z,91.94
2019-04-30T01:41:15.209Z,91.74
2019-04-30T01:42:15.186Z,91.99
2019-04-30T01:43:15.204Z,91.47
2019-04-30T01:44:15.177Z,91.36
2019-04-30T01:45:15.191Z,91.78
2019-04-30T01:46:15.149Z,92.19
2019-04-30T01:47:15.168Z,91.47
2019-04-30T01:48:15.152Z,91.61
2019-04-30T01:49:15.163Z,91.26
2019-04-30T01:50:15.113Z,90.89
2019-04-30T01:51:20.455Z,90.89
2019-04-30T01:52:15.082Z,91.14
2019-04-30T01:53:15.072Z,90.93
2019-04-30T01:54:21.154Z,90.41
2019-04-30T01:55:16.099Z,89.79
2019-04-30T01:56:15.025Z,90.41
2019-04-30T01:57:15.044Z,91.03
2019-04-30T01:58:15.043Z,89.58
2019-04-30T01:59:15.025Z,89.94
2019-04-30T02:00:14.988Z,90.35
2019-04-30T02:01:15.021Z,90.04
2019-04-30T02:02:14.969Z,90.56
2019-04-30T02:03:14.963Z,90.08
2019-04-30T02:04:14.950Z,90.08
2019-04-30T02:05:14.940Z,90.39
2019-04-30T02:06:14.953Z,90.08
2019-04-30T02:07:14.924Z,89.87
2019-04-30T02:08:14.924Z,90.75
2019-04-30T02:09:14.890Z,90.23
2019-04-30T02:10:14.880Z,91.27
2019-04-30T02:11:14.896Z,91.06
2019-04-30T02:12:14.883Z,91.68
2019-04-30T02:13:14.848Z,91.68
2019-04-30T02:14:14.847Z,91.78
2019-04-30T02:15:14.830Z,91.78
2019-04-30T02:16:14.859Z,92.41
2019-04-30T02:17:14.834Z,91.89
2019-04-30T02:18:14.790Z,92.20
2019-04-30T02:19:14.781Z,92.72
2019-04-30T02:20:14.771Z,92.30
2019-04-30T02:21:14.766Z,92.72
2019-04-30T02:22:14.753Z,93.33
2019-04-30T02:23:14.846Z,93.23
2019-04-30T02:24:14.729Z,92.93
2019-04-30T02:25:14.758Z,93.54
2019-04-30T02:26:14.734Z,93.65
2019-04-30T02:27:14.692Z,93.44
2019-04-30T02:28:14.676Z,93.75
2019-04-30T02:29:14.685Z,94.43
2019-04-30T02:30:14.691Z,94.33
2019-04-30T02:31:14.653Z,94.64
2019-04-30T02:32:14.637Z,94.64
2019-04-30T02:33:14.621Z,94.58
2019-04-30T02:34:14.648Z,94.54
2019-04-30T02:35:14.595Z,95.16
2019-04-30T02:36:14.642Z,94.74
2019-04-30T02:37:14.579Z,94.85
2019-04-30T02:38:14.570Z,95.06
2019-04-30T02:39:14.569Z,95.37
2019-04-30T02:40:14.596Z,94.95
2019-04-30T02:41:14.532Z,94.85
2019-04-30T02:42:14.539Z,95.16
2019-04-30T02:43:14.509Z,94.74
2019-04-30T02:44:14.496Z,95.06
2019-04-30T02:45:14.489Z,94.54
2019-04-30T02:46:14.504Z,94.54
2019-04-30T02:47:14.476Z,94.68
2019-04-30T02:48:14.493Z,94.43
2019-04-30T02:49:14.444Z,94.74
2019-04-30T02:50:18.744Z,95.26
2019-04-30T02:51:15.501Z,95.16
2019-04-30T02:52:14.434Z,94.58
2019-04-30T02:53:14.420Z,94.48
2019-04-30T02:54:14.394Z,94.58
2019-04-30T02:55:14.385Z,94.79
2019-04-30T02:56:14.398Z,94.68
2019-04-30T02:57:14.382Z,94.17
2019-04-30T02:58:14.381Z,94.06
2019-04-30T02:59:14.340Z,94.01
2019-04-30T03:00:14.326Z,94.01
2019-04-30T03:01:14.365Z,93.70
2019-04-30T03:02:14.339Z,93.80
2019-04-30T03:03:14.293Z,93.70
2019-04-30T03:04:14.277Z,94.11
2019-04-30T03:05:14.297Z,94.05
2019-04-30T03:06:14.292Z,93.74
2019-04-30T03:07:14.244Z,93.74
2019-04-30T03:08:14.271Z,93.38
2019-04-30T03:09:14.219Z,93.95
2019-04-30T03:10:14.231Z,93.63
2019-04-30T03:11:14.200Z,93.43
2019-04-30T03:12:14.189Z,93.74
2019-04-30T03:13:14.220Z,93.63
2019-04-30T03:14:14.179Z,93.74
2019-04-30T03:15:14.149Z,94.20
2019-04-30T03:16:14.142Z,92.74
2019-04-30T03:17:14.126Z,93.37
2019-04-30T03:18:14.121Z,93.16
2019-04-30T03:19:14.177Z,92.94
2019-04-30T03:20:27.685Z,93.26
2019-04-30T03:21:15.086Z,93.16
2019-04-30T03:22:14.084Z,93.26
2019-04-30T03:23:14.055Z,93.57
2019-04-30T03:24:14.071Z,93.37
2019-04-30T03:25:14.081Z,93.30
2019-04-30T03:26:14.062Z,93.10
2019-04-30T03:27:14.025Z,93.30
2019-04-30T03:28:14.014Z,93.41
2019-04-30T03:29:14.034Z,93.20
2019-04-30T03:30:14.095Z,94.24
2019-04-30T03:31:13.981Z,93.72
2019-04-30T03:32:14.516Z,93.93
2019-04-30T03:33:13.954Z,93.82
2019-04-30T03:34:24.106Z,94.24
2019-04-30T03:35:15.107Z,93.51
2019-04-30T03:36:13.912Z,93.14
2019-04-30T03:37:13.917Z,94.34
2019-04-30T03:38:13.890Z,93.82
2019-04-30T03:39:13.886Z,93.87
2019-04-30T03:40:13.949Z,93.76
2019-04-30T03:41:13.860Z,93.45
2019-04-30T03:42:13.848Z,93.66
2019-04-30T03:43:13.857Z,93.66
2019-04-30T03:44:21.549Z,94.18
2019-04-30T03:45:14.852Z,94.18
2019-04-30T03:46:13.845Z,94.01
2019-04-30T03:47:13.797Z,93.87
2019-04-30T03:48:13.790Z,94.07
2019-04-30T03:49:13.759Z,93.87
2019-04-30T03:50:13.875Z,94.01
2019-04-30T03:51:13.770Z,93.91
2019-04-30T03:52:13.776Z,94.12
2019-04-30T03:53:13.734Z,94.22
2019-04-30T03:54:13.706Z,93.80
2019-04-30T03:55:13.725Z,93.91
2019-04-30T03:56:13.699Z,93.70
2019-04-30T03:57:13.700Z,93.60
2019-04-30T03:58:13.671Z,94.43
2019-04-30T03:59:13.675Z,94.22
2019-04-30T04:00:13.684Z,94.43
2019-04-30T04:01:13.636Z,94.18
2019-04-30T04:02:13.658Z,93.91
2019-04-30T04:03:13.611Z,94.01
2019-04-30T04:04:13.613Z,94.32
2019-04-30T04:05:13.701Z,94.53
2019-04-30T04:06:13.615Z,94.22
2019-04-30T04:07:13.588Z,93.91
2019-04-30T04:08:13.561Z,94.01
2019-04-30T04:09:13.553Z,94.12
2019-04-30T04:10:13.529Z,94.12
2019-04-30T04:11:13.576Z,94.74
2019-04-30T04:12:13.515Z,94.32
2019-04-30T04:13:13.518Z,94.43
2019-04-30T04:14:13.578Z,94.74
2019-04-30T04:15:13.480Z,94.84
2019-04-30T04:16:13.483Z,94.12
2019-04-30T04:17:13.454Z,94.18
2019-04-30T04:18:13.480Z,94.53
2019-04-30T04:19:13.451Z,94.32
2019-04-30T04:20:13.426Z,94.12
2019-04-30T04:21:17.023Z,94.22
2019-04-30T04:22:13.472Z,94.28
2019-04-30T04:23:13.378Z,94.38
2019-04-30T04:24:13.408Z,94.18
2019-04-30T04:25:13.530Z,94.28
2019-04-30T04:26:13.348Z,94.49
2019-04-30T04:27:13.348Z,94.70
2019-04-30T04:28:13.334Z,94.59
2019-04-30T04:29:13.316Z,94.76
2019-04-30T04:30:13.319Z,94.70
2019-04-30T04:31:13.351Z,94.18
2019-04-30T04:32:13.279Z,94.96
2019-04-30T04:33:13.278Z,94.70
2019-04-30T04:34:13.265Z,94.45
2019-04-30T04:35:13.533Z,94.96
2019-04-30T04:36:13.244Z,94.34
2019-04-30T04:37:13.221Z,94.24
2019-04-30T04:38:13.260Z,94.45
2019-04-30T04:39:13.201Z,94.34
2019-04-30T04:40:13.193Z,94.34
2019-04-30T04:41:13.212Z,93.72
2019-04-30T04:42:13.176Z,93.93
2019-04-30T04:43:13.183Z,93.93
2019-04-30T04:44:13.334Z,93.82
2019-04-30T04:45:13.150Z,93.93
2019-04-30T04:46:13.135Z,93.82
2019-04-30T04:47:15.979Z,93.82
2019-04-30T04:48:13.171Z,93.72
2019-04-30T04:49:13.102Z,93.47
2019-04-30T04:50:13.114Z,93.88
2019-04-30T04:51:27.758Z,93.47
2019-04-30T04:52:14.097Z,93.57
2019-04-30T04:53:13.071Z,93.99
2019-04-30T04:54:14.022Z,93.88
2019-04-30T04:55:14.024Z,93.99
2019-04-30T04:56:13.077Z,93.99
2019-04-30T04:57:17.979Z,93.78
2019-04-30T04:58:13.994Z,93.47
2019-04-30T04:59:13.082Z,93.37
2019-04-30T05:00:12.977Z,93.78
2019-04-30T05:01:12.974Z,93.88
2019-04-30T05:02:12.989Z,93.78
2019-04-30T05:03:13.990Z,93.88
2019-04-30T05:04:13.038Z,93.99
2019-04-30T05:05:13.013Z,93.68
2019-04-30T05:06:12.922Z,93.68
2019-04-30T05:07:12.986Z,94.09
2019-04-30T05:08:12.893Z,94.30
2019-04-30T05:09:12.955Z,93.68
2019-04-30T05:10:12.878Z,93.78
2019-04-30T05:11:13.541Z,92.63
2019-04-30T05:12:12.893Z,93.16
2019-04-30T05:13:12.893Z,93.88
2019-04-30T05:14:12.844Z,93.88
2019-04-30T05:15:52.082Z,93.57
2019-04-30T05:16:12.853Z,93.78
2019-04-30T05:17:12.822Z,93.84
2019-04-30T05:18:12.790Z,93.78
2019-04-30T05:19:12.764Z,94.20
2019-04-30T05:20:12.789Z,93.16
2019-04-30T05:21:12.826Z,93.16
2019-04-30T05:22:12.802Z,93.16
2019-04-30T05:23:12.726Z,93.78
2019-04-30T05:24:12.713Z,93.88
2019-04-30T05:25:12.782Z,93.47
2019-04-30T05:26:12.891Z,93.99
2019-04-30T05:27:12.698Z,93.47
2019-04-30T05:28:12.743Z,93.99
2019-04-30T05:29:12.683Z,93.95
2019-04-30T05:30:12.702Z,93.74
2019-04-30T05:31:12.633Z,93.63
2019-04-30T05:32:12.676Z,93.32
2019-04-30T05:33:12.624Z,93.43
2019-04-30T05:34:12.597Z,93.43
2019-04-30T05:35:12.622Z,92.59
2019-04-30T05:36:12.643Z,92.69
2019-04-30T05:37:12.576Z,93.32
2019-04-30T05:38:12.549Z,91.86
2019-04-30T05:39:12.563Z,91.93
2019-04-30T05:40:12.594Z,91.86
2019-04-30T05:41:12.568Z,91.93
2019-04-30T05:42:12.533Z,92.35
2019-04-30T05:43:12.515Z,92.86
2019-04-30T05:44:12.485Z,92.97
2019-04-30T05:45:12.628Z,93.07
2019-04-30T05:46:14.098Z,92.24
2019-04-30T05:47:12.439Z,91.72
2019-04-30T05:48:12.430Z,91.93
2019-04-30T05:49:12.474Z,91.93
2019-04-30T05:50:12.425Z,91.20
2019-04-30T05:51:12.439Z,92.03
2019-04-30T05:52:12.452Z,91.83
2019-04-30T05:53:12.431Z,91.97
2019-04-30T05:54:12.371Z,92.14
2019-04-30T05:55:12.368Z,91.62
2019-04-30T05:56:12.403Z,91.97
2019-04-30T05:57:12.419Z,91.35
2019-04-30T05:58:12.361Z,91.45
2019-04-30T05:59:12.356Z,91.66
2019-04-30T06:00:33.420Z,91.00
2019-04-30T06:01:12.310Z,91.55
2019-04-30T06:02:12.277Z,91.20
2019-04-30T06:03:12.263Z,91.10
2019-04-30T06:04:12.267Z,91.20
2019-04-30T06:05:12.398Z,91.10
2019-04-30T06:06:12.292Z,91.10
2019-04-30T06:07:12.242Z,91.10
2019-04-30T06:08:12.273Z,91.31
2019-04-30T06:09:14.790Z,90.02
2019-04-30T06:10:12.223Z,90.44
2019-04-30T06:11:12.276Z,91.89
2019-04-30T06:12:13.048Z,90.75
2019-04-30T06:13:12.158Z,90.44
2019-04-30T06:14:12.174Z,89.50
2019-04-30T06:15:19.390Z,89.29
2019-04-30T06:16:12.190Z,90.44
2019-04-30T06:17:12.127Z,90.33
2019-04-30T06:18:14.044Z,90.12
2019-04-30T06:19:12.102Z,89.98
2019-04-30T06:20:18.357Z,91.64
2019-04-30T06:21:12.140Z,93.56
2019-04-30T06:22:12.069Z,93.73
2019-04-30T06:23:12.070Z,92.07
2019-04-30T06:24:12.062Z,91.09
2019-04-30T06:25:12.072Z,89.44
2019-04-30T06:26:13.220Z,88.30
2019-04-30T06:27:12.022Z,90.35
2019-04-30T06:28:12.071Z,86.57
2019-04-30T06:29:13.013Z,84.63
2019-04-30T06:30:12.209Z,82.86
2019-04-30T06:31:12.012Z,80.62
2019-04-30T06:32:12.124Z,77.08
2019-04-30T06:33:11.983Z,77.14
2019-04-30T06:34:11.919Z,76.45
2019-04-30T06:35:11.922Z,76.83
2019-04-30T06:36:11.996Z,77.92
2019-04-30T06:37:11.903Z,77.37
2019-04-30T06:38:11.859Z,76.21
2019-04-30T06:39:11.868Z,74.43
2019-04-30T06:40:11.887Z,72.55
2019-04-30T06:41:11.873Z,73.13
2019-04-30T06:42:12.973Z,72.00
2019-04-30T06:43:11.821Z,71.45
2019-04-30T06:44:11.812Z,72.34
2019-04-30T06:45:11.792Z,70.77
2019-04-30T06:46:11.791Z,70.26
2019-04-30T06:47:11.796Z,69.13
2019-04-30T06:48:11.767Z,69.43
2019-04-30T06:49:11.746Z,72.48
2019-04-30T06:50:11.748Z,71.35
2019-04-30T06:51:11.718Z,71.11
2019-04-30T06:52:20.353Z,70.91
2019-04-30T06:53:11.733Z,70.29
2019-04-30T06:54:11.691Z,70.06
2019-04-30T06:55:11.676Z,68.55
2019-04-30T06:56:11.699Z,69.30
2019-04-30T06:57:12.087Z,69.74
2019-04-30T06:58:15.286Z,70.18
2019-04-30T06:59:11.674Z,71.86
2019-04-30T07:00:11.615Z,72.68
2019-04-30T07:01:11.612Z,74.84
2019-04-30T07:02:11.590Z,72.20
2019-04-30T07:03:11.639Z,73.40
2019-04-30T07:04:11.575Z,74.70
2019-04-30T07:05:12.033Z,74.46
2019-04-30T07:06:11.553Z,73.40
2019-04-30T07:07:14.336Z,71.48
2019-04-30T07:08:12.532Z,72.20
2019-04-30T07:09:11.535Z,70.26
2019-04-30T07:10:16.924Z,71.42
2019-04-30T07:11:12.488Z,70.94
2019-04-30T07:12:22.856Z,70.59
2019-04-30T07:13:12.474Z,73.40
2019-04-30T07:14:11.467Z,73.33
2019-04-30T07:15:13.668Z,74.36
2019-04-30T07:16:11.441Z,76.56
2019-04-30T07:17:11.503Z,76.04
2019-04-30T07:18:11.428Z,75.46
2019-04-30T07:19:11.411Z,73.81
2019-04-30T07:20:11.390Z,74.05
2019-04-30T07:21:11.419Z,76.42
2019-04-30T07:22:11.429Z,78.03
2019-04-30T07:23:11.368Z,78.20
2019-04-30T07:24:11.347Z,75.80
2019-04-30T07:25:11.345Z,74.57
2019-04-30T07:26:13.848Z,73.85
2019-04-30T07:27:12.364Z,73.27
2019-04-30T07:28:11.320Z,73.91
2019-04-30T07:29:11.287Z,74.43
2019-04-30T07:30:11.326Z,75.49
2019-04-30T07:31:14.331Z,74.87
2019-04-30T07:32:11.259Z,75.80
2019-04-30T07:33:11.356Z,78.96
2019-04-30T07:34:11.248Z,76.38
2019-04-30T07:35:11.214Z,74.63
2019-04-30T07:36:11.216Z,74.02
2019-04-30T07:37:17.281Z,74.98
2019-04-30T07:38:12.304Z,76.45
2019-04-30T07:39:11.173Z,77.45
2019-04-30T07:40:11.171Z,77.96
2019-04-30T07:41:11.158Z,78.13
2019-04-30T07:42:11.151Z,76.21
2019-04-30T07:43:11.112Z,76.25
2019-04-30T07:44:29.436Z,76.28
2019-04-30T07:45:12.102Z,76.18
2019-04-30T07:46:11.100Z,76.70
2019-04-30T07:47:11.141Z,77.79
2019-04-30T07:48:11.064Z,77.51
2019-04-30T07:49:11.088Z,76.35
2019-04-30T07:50:11.328Z,75.52
2019-04-30T07:51:11.548Z,75.42
2019-04-30T07:52:12.076Z,74.80
2019-04-30T07:53:12.157Z,76.14
2019-04-30T07:54:11.011Z,74.91
2019-04-30T07:55:11.034Z,77.28
2019-04-30T07:56:24.438Z,77.14
2019-04-30T07:57:12.018Z,77.31
2019-04-30T07:58:10.955Z,76.69
2019-04-30T07:59:11.206Z,75.25
2019-04-30T08:00:10.996Z,78.13
2019-04-30T08:01:10.928Z,77.92
2019-04-30T08:02:14.679Z,78.03
2019-04-30T08:03:11.384Z,78.50
2019-04-30T08:04:10.893Z,76.10
2019-04-30T08:05:10.889Z,74.91
2019-04-30T08:06:11.596Z,73.98
2019-04-30T08:07:10.912Z,73.88
2019-04-30T08:08:21.263Z,75.83
2019-04-30T08:09:11.833Z,75.21
2019-04-30T08:10:11.403Z,75.42
2019-04-30T08:11:23.027Z,76.25
2019-04-30T08:12:21.119Z,76.14
2019-04-30T08:13:14.868Z,75.42
2019-04-30T08:14:10.858Z,76.59
2019-04-30T08:15:10.782Z,74.50
2019-04-30T08:16:10.771Z,76.04
2019-04-30T08:17:10.785Z,76.65
2019-04-30T08:18:10.787Z,76.76
2019-04-30T08:19:10.730Z,75.83
2019-04-30T08:20:10.713Z,75.21
2019-04-30T08:21:10.716Z,76.59
2019-04-30T08:22:10.733Z,75.49
2019-04-30T08:23:20.280Z,76.31
2019-04-30T08:24:11.662Z,77.14
2019-04-30T08:25:10.660Z,75.80
2019-04-30T08:26:10.662Z,77.17
2019-04-30T08:27:10.642Z,78.10
2019-04-30T08:28:10.730Z,81.09
2019-04-30T08:29:10.632Z,78.47
2019-04-30T08:30:21.258Z,78.75
2019-04-30T08:31:11.640Z,78.44
2019-04-30T08:32:10.579Z,76.79
2019-04-30T08:33:10.577Z,76.21
2019-04-30T08:34:11.021Z,76.31
2019-04-30T08:35:10.629Z,75.90
2019-04-30T08:36:10.537Z,74.77
2019-04-30T08:37:17.086Z,76.07
2019-04-30T08:38:10.892Z,78.03
2019-04-30T08:39:10.565Z,76.18
2019-04-30T08:40:10.512Z,76.14
2019-04-30T08:41:10.499Z,76.65
2019-04-30T08:42:10.476Z,75.83
2019-04-30T08:43:10.462Z,74.40
2019-04-30T08:44:10.493Z,75.67
2019-04-30T08:45:10.482Z,76.38
2019-04-30T08:46:10.475Z,76.90
2019-04-30T08:47:10.446Z,76.31
2019-04-30T08:48:10.414Z,78.10
2019-04-30T08:49:10.405Z,77.24
2019-04-30T08:50:10.811Z,78.20
2019-04-30T08:51:13.386Z,79.03
2019-04-30T08:52:10.887Z,78.14
2019-04-30T08:53:11.193Z,78.28
2019-04-30T08:54:12.543Z,80.65
2019-04-30T08:55:15.615Z,81.47
2019-04-30T08:56:11.363Z,81.84
2019-04-30T08:57:10.310Z,80.47
2019-04-30T08:58:14.887Z,83.06
2019-04-30T08:59:11.412Z,78.75
2019-04-30T09:00:11.850Z,77.06
2019-04-30T09:01:10.351Z,75.63
2019-04-30T09:02:15.900Z,77.95
2019-04-30T09:03:11.326Z,76.00
2019-04-30T09:04:10.542Z,76.07
2019-04-30T09:05:10.233Z,74.94
2019-04-30T09:06:10.236Z,75.56
2019-04-30T09:07:10.283Z,74.60
2019-04-30T09:08:10.194Z,74.08
2019-04-30T09:09:11.039Z,74.08
2019-04-30T09:10:10.201Z,75.73
2019-04-30T09:11:22.118Z,75.93
2019-04-30T09:12:11.188Z,76.17
2019-04-30T09:13:10.208Z,75.42
2019-04-30T09:14:10.158Z,76.14
2019-04-30T09:15:10.130Z,76.55
2019-04-30T09:16:10.108Z,75.83
2019-04-30T09:17:10.071Z,73.78
2019-04-30T09:18:12.639Z,76.17
2019-04-30T09:19:10.103Z,74.32
2019-04-30T09:20:10.060Z,75.97
2019-04-30T09:21:10.066Z,76.65
2019-04-30T09:22:14.877Z,75.83
2019-04-30T09:23:11.267Z,77.64
2019-04-30T09:24:10.112Z,76.51
2019-04-30T09:25:10.000Z,75.90
2019-04-30T09:26:09.990Z,74.63
2019-04-30T09:27:10.766Z,72.58
2019-04-30T09:28:09.964Z,74.02
2019-04-30T09:29:09.948Z,73.10
2019-04-30T09:30:10.357Z,74.77
2019-04-30T09:31:09.968Z,76.17
2019-04-30T09:32:09.947Z,73.50
2019-04-30T09:33:11.134Z,74.60
2019-04-30T09:34:17.157Z,73.57
2019-04-30T09:35:10.995Z,75.82
2019-04-30T09:36:09.877Z,73.68
2019-04-30T09:37:09.876Z,73.78
2019-04-30T09:38:09.865Z,75.01
2019-04-30T09:39:09.847Z,73.88
2019-04-30T09:40:17.904Z,75.82
2019-04-30T09:41:10.863Z,74.66
2019-04-30T09:42:09.805Z,74.46
2019-04-30T09:43:09.782Z,72.41
2019-04-30T09:44:10.070Z,72.65
2019-04-30T09:45:25.996Z,76.24
2019-04-30T09:46:19.226Z,74.70
2019-04-30T09:47:10.746Z,71.42
2019-04-30T09:48:09.757Z,71.42
2019-04-30T09:49:09.758Z,74.43
2019-04-30T09:50:09.707Z,74.63
2019-04-30T09:51:10.765Z,74.32
2019-04-30T09:52:10.009Z,73.61
2019-04-30T09:53:10.424Z,74.32
2019-04-30T09:54:12.275Z,77.81
2019-04-30T09:55:10.052Z,75.82
2019-04-30T09:56:09.730Z,76.44
2019-04-30T09:57:11.422Z,77.84
2019-04-30T09:58:16.869Z,77.94
2019-04-30T09:59:09.614Z,73.54
2019-04-30T10:00:09.655Z,73.44
2019-04-30T10:01:09.626Z,74.46
2019-04-30T10:02:09.576Z,75.07
2019-04-30T10:03:10.808Z,72.61
2019-04-30T10:04:10.924Z,72.14
2019-04-30T10:05:09.995Z,72.44
2019-04-30T10:06:09.524Z,73.57
2019-04-30T10:07:09.666Z,74.15
2019-04-30T10:08:09.523Z,73.44
2019-04-30T10:09:09.756Z,73.44
2019-04-30T10:10:11.439Z,72.61
2019-04-30T10:11:09.777Z,74.97
2019-04-30T10:12:09.775Z,75.07
2019-04-30T10:13:09.452Z,71.28
2019-04-30T10:14:09.476Z,73.64
2019-04-30T10:15:09.463Z,74.97
2019-04-30T10:16:09.794Z,72.89
2019-04-30T10:17:09.602Z,71.86
2019-04-30T10:18:09.384Z,71.83
2019-04-30T10:19:10.267Z,70.74
2019-04-30T10:20:09.391Z,72.45
2019-04-30T10:21:09.351Z,72.04
2019-04-30T10:22:09.358Z,73.27
2019-04-30T10:23:09.565Z,72.55
2019-04-30T10:24:15.341Z,74.19
2019-04-30T10:25:11.023Z,69.38
2019-04-30T10:26:09.307Z,69.71
2019-04-30T10:27:13.030Z,72.69
2019-04-30T10:28:10.005Z,69.54
2019-04-30T10:29:09.260Z,70.26
2019-04-30T10:30:09.440Z,71.28
2019-04-30T10:31:09.265Z,69.51
2019-04-30T10:32:09.232Z,68.28
2019-04-30T10:33:10.061Z,72.38
2019-04-30T10:34:09.660Z,72.69
2019-04-30T10:35:09.214Z,72.14
2019-04-30T10:36:09.418Z,71.90
2019-04-30T10:37:09.194Z,72.48
2019-04-30T10:38:09.880Z,74.39
2019-04-30T10:39:09.150Z,72.82
2019-04-30T10:40:10.325Z,69.76
2019-04-30T10:41:09.160Z,67.51
2019-04-30T10:42:09.128Z,67.03
2019-04-30T10:43:09.210Z,70.10
2019-04-30T10:44:09.088Z,70.51
2019-04-30T10:45:10.030Z,69.18
2019-04-30T10:46:09.730Z,69.28
2019-04-30T10:47:09.402Z,67.10
2019-04-30T10:48:09.136Z,68.94
2019-04-30T10:49:09.220Z,69.32
2019-04-30T10:50:09.884Z,69.73
2019-04-30T10:51:09.144Z,69.21
2019-04-30T10:52:09.391Z,70.03
2019-04-30T10:53:09.268Z,69.86
2019-04-30T10:54:09.017Z,69.65
2019-04-30T10:55:09.336Z,67.00
2019-04-30T10:56:09.739Z,67.10
2019-04-30T10:57:08.953Z,70.57
2019-04-30T10:58:08.938Z,69.24
2019-04-30T10:59:08.933Z,69.42
2019-04-30T11:00:10.141Z,69.65
2019-04-30T11:01:09.577Z,72.34
2019-04-30T11:02:09.118Z,70.10
2019-04-30T11:03:19.537Z,69.05
2019-04-30T11:04:09.855Z,67.24
2019-04-30T11:05:08.895Z,67.93
2019-04-30T11:06:08.895Z,66.74
2019-04-30T11:07:08.850Z,70.31
2019-04-30T11:08:08.834Z,67.48
2019-04-30T11:09:08.823Z,67.48
2019-04-30T11:10:08.808Z,69.21
2019-04-30T11:11:08.881Z,70.51
2019-04-30T11:12:09.490Z,68.10
2019-04-30T11:13:08.780Z,67.38
2019-04-30T11:14:08.767Z,64.73
2019-04-30T11:15:08.751Z,65.48
2019-04-30T11:16:13.269Z,69.02
2019-04-30T11:17:10.097Z,70.31
2019-04-30T11:18:08.944Z,64.81
2019-04-30T11:19:09.373Z,67.15
2019-04-30T11:20:10.294Z,64.98
2019-04-30T11:21:09.754Z,67.12
2019-04-30T11:22:08.890Z,66.74
2019-04-30T11:23:14.600Z,65.31
2019-04-30T11:24:09.801Z,67.25
2019-04-30T11:25:10.010Z,67.05
2019-04-30T11:26:09.071Z,65.80
2019-04-30T11:27:11.237Z,64.78
2019-04-30T11:28:09.257Z,67.43
2019-04-30T11:29:08.675Z,64.78
2019-04-30T11:30:20.355Z,62.02
2019-04-30T11:31:08.782Z,63.96
2019-04-30T11:32:08.749Z,65.01
2019-04-30T11:33:08.792Z,66.94
2019-04-30T11:34:08.532Z,66.94
2019-04-30T11:35:08.605Z,67.25
2019-04-30T11:36:09.611Z,65.49
2019-04-30T11:37:08.501Z,63.58
2019-04-30T11:38:08.559Z,67.46
2019-04-30T11:39:08.637Z,67.05
2019-04-30T11:40:08.457Z,63.65
2019-04-30T11:41:08.715Z,66.68
2019-04-30T11:42:08.435Z,65.12
2019-04-30T11:43:08.432Z,67.36
2019-04-30T11:44:09.301Z,62.58
2019-04-30T11:45:08.688Z,64.34
2019-04-30T11:46:08.716Z,61.93
2019-04-30T11:47:09.490Z,63.04
2019-04-30T11:48:09.075Z,65.49
2019-04-30T11:49:09.675Z,65.69
2019-04-30T11:50:08.367Z,66.78
2019-04-30T11:51:09.482Z,67.39
2019-04-30T11:52:08.346Z,64.14
2019-04-30T11:53:24.102Z,65.56
2019-04-30T11:54:09.314Z,65.77
2019-04-30T11:55:09.662Z,64.14
2019-04-30T11:56:08.308Z,65.56
2019-04-30T11:57:08.876Z,63.59
2019-04-30T11:58:20.978Z,62.30
2019-04-30T11:59:08.739Z,64.37
2019-04-30T12:00:08.528Z,63.56
2019-04-30T12:01:09.360Z,65.39
2019-04-30T12:02:08.216Z,63.86
2019-04-30T12:03:09.037Z,65.49
2019-04-30T12:04:09.365Z,62.71
2019-04-30T12:05:08.174Z,65.12
2019-04-30T12:06:08.623Z,62.04
2019-04-30T12:07:08.158Z,65.12
2019-04-30T12:08:09.535Z,61.43
2019-04-30T12:09:09.189Z,59.53
2019-04-30T12:10:09.498Z,58.15
2019-04-30T12:11:08.116Z,58.15
2019-04-30T12:12:09.175Z,60.80
2019-04-30T12:13:09.596Z,60.91
2019-04-30T12:14:08.078Z,61.69
2019-04-30T12:15:09.336Z,62.40
2019-04-30T12:16:08.680Z,60.98
2019-04-30T12:17:08.055Z,63.96
2019-04-30T12:18:08.053Z,62.54
2019-04-30T12:19:09.022Z,62.54
2019-04-30T12:20:08.605Z,62.26
2019-04-30T12:21:07.985Z,65.62
2019-04-30T12:22:07.996Z,66.71
2019-04-30T12:23:11.479Z,62.92
2019-04-30T12:24:07.998Z,64.17
2019-04-30T12:25:09.852Z,63.19
2019-04-30T12:26:09.210Z,63.09
2019-04-30T12:27:07.922Z,61.83
2019-04-30T12:28:09.518Z,65.67
2019-04-30T12:29:08.979Z,59.88
2019-04-30T12:30:07.990Z,59.34
2019-04-30T12:31:09.767Z,60.86
2019-04-30T12:32:07.904Z,57.61
2019-04-30T12:33:09.079Z,57.23
2019-04-30T12:34:07.882Z,56.82
2019-04-30T12:35:07.856Z,58.25
2019-04-30T12:36:09.034Z,58.76
2019-04-30T12:37:10.572Z,60.28
2019-04-30T12:38:08.814Z,60.59
2019-04-30T12:39:07.801Z,62.26
2019-04-30T12:40:09.439Z,58.40
2019-04-30T12:41:08.781Z,60.20
2019-04-30T12:42:08.762Z,59.99
2019-04-30T12:43:07.756Z,59.59
2019-04-30T12:44:07.739Z,58.27
2019-04-30T12:45:09.440Z,57.18
2019-04-30T12:46:07.778Z,57.31
2019-04-30T12:47:09.567Z,59.52
2019-04-30T12:48:07.700Z,57.61
2019-04-30T12:49:07.695Z,60.25
2019-04-30T12:50:09.571Z,59.95
2019-04-30T12:51:07.653Z,56.29
2019-04-30T12:52:08.753Z,57.10